Time;durP1;ratioP1;P1;durP2;ratioP2;P2;SDS_P1;SDS_P2;PMS_P1;PMS_P2;Temp;Humidity;BMP_temperature;BMP_pressure;BME280_temperature;BME280_humidity;BME280_pressure;Samples;Min_cycle;Max_cycle;Signal;HPM_P1;HPM_P2
2022/06/03 00:00:16;;;;;;;6.32;5.03;;;;;;;9.90;100.00;93168.41;2103598;28;20393;-84
2022/06/03 00:01:44;;;;;;;6.65;4.75;;;;;;;9.86;100.00;93169.63;2098538;28;20489;-86
2022/06/03 00:03:02;;;;;;;6.18;4.72;;;;;;;9.93;100.00;93156.16;2105870;28;20069;-85
2022/06/03 00:04:12;;;;;;;10.23;5.22;;;;;;;9.89;100.00;93164.22;2103114;28;20528;-84
2022/06/03 00:05:19;;;;;;;7.20;4.80;;;;;;;9.86;100.00;93157.03;2109036;27;20031;-83
2022/06/03 00:06:57;;;;;;;7.63;6.25;;;;;;;9.81;100.00;93155.59;2115912;27;20412;-85
2022/06/03 00:08:20;;;;;;;5.05;4.65;;;;;;;9.85;100.00;93166.22;2120432;27;20023;-85
2022/06/03 00:09:23;;;;;;;5.20;4.53;;;;;;;9.88;100.00;93153.94;2106479;28;20032;-84
2022/06/03 00:10:34;;;;;;;7.25;5.18;;;;;;;9.86;100.00;93162.38;2098852;28;20323;-84
2022/06/03 00:11:54;;;;;;;5.43;4.97;;;;;;;9.85;100.00;93166.22;2099755;28;20206;-84
2022/06/03 00:13:10;;;;;;;;;;;;;;;9.86;100.00;93162.38;2107231;28;20597;-85
2022/06/03 00:14:30;;;;;;;5.90;5.30;;;;;;;9.80;100.00;93167.44;2105510;28;19967;-84
2022/06/03 00:15:49;;;;;;;5.15;4.65;;;;;;;9.85;100.00;93166.22;2108909;28;20044;-83
2022/06/03 00:17:25;;;;;;;6.25;4.63;;;;;;;9.80;100.00;93164.78;2103356;28;20028;-83
2022/06/03 00:18:53;;;;;;;5.80;4.70;;;;;;;9.70;100.00;93159.59;2074408;28;20032;-85
2022/06/03 00:19:57;;;;;;;4.68;3.70;;;;;;;9.76;100.00;93171.34;2113998;27;20733;-85
2022/06/03 00:21:12;;;;;;;4.88;4.10;;;;;;;9.73;100.00;93164.13;2106293;28;20036;-85
2022/06/03 00:22:54;;;;;;;5.43;4.80;;;;;;;9.87;100.00;93166.53;2094036;28;20390;-85
2022/06/03 00:26:13;;;;;;;4.93;4.53;;;;;;;9.77;100.00;93162.91;2114561;28;20067;-86
2022/06/03 00:27:43;;;;;;;5.18;4.70;;;;;;;9.79;100.00;93168.59;2114956;28;20026;-85
2022/06/03 00:29:03;;;;;;;5.18;4.53;;;;;;;9.69;100.00;93172.19;2110577;28;20032;-84
2022/06/03 00:30:29;;;;;;;4.70;4.30;;;;;;;9.70;100.00;93175.63;2109303;27;20091;-84
2022/06/03 00:32:07;;;;;;;6.00;4.07;;;;;;;9.69;100.00;93182.13;2118514;27;20027;-84
2022/06/03 00:33:30;;;;;;;7.18;5.03;;;;;;;9.59;100.00;93176.56;2111613;28;20027;-84
2022/06/03 00:34:31;;;;;;;4.95;4.45;;;;;;;9.62;100.00;93176.94;2114834;28;20028;-85
2022/06/03 00:36:02;;;;;;;5.75;4.50;;;;;;;9.62;100.00;93177.69;2106244;28;20085;-84
2022/06/03 00:37:22;;;;;;;4.70;4.30;;;;;;;9.60;100.00;93171.97;2114461;28;20031;-84
2022/06/03 00:38:34;;;;;;;5.20;4.70;;;;;;;9.65;100.00;93176.09;2111498;28;20031;-86
2022/06/03 00:40:08;;;;;;;6.05;4.55;;;;;;;9.54;100.00;93173.63;2101179;28;20427;-86
2022/06/03 00:41:26;;;;;;;4.82;4.35;;;;;;;9.64;100.00;93170.00;2106048;28;20430;-86
2022/06/03 00:42:37;;;;;;;5.13;4.72;;;;;;;9.75;100.00;93173.25;2116549;27;20026;-84
2022/06/03 00:44:11;;;;;;;7.20;4.38;;;;;;;9.63;100.00;93168.50;2111263;28;20047;-85
2022/06/03 00:45:29;;;;;;;7.32;4.65;;;;;;;9.59;100.00;93162.47;2102488;28;20034;-85
2022/06/03 00:46:58;;;;;;;5.18;4.70;;;;;;;9.54;100.00;93163.69;2103534;28;20016;-83
2022/06/03 00:48:36;;;;;;;4.53;4.13;;;;;;;9.55;100.00;93167.13;2105506;28;20097;-84
2022/06/03 00:50:09;;;;;;;4.32;3.92;;;;;;;9.57;100.00;93160.22;2108251;28;20027;-85
2022/06/03 00:51:39;;;;;;;4.82;4.43;;;;;;;9.63;100.00;93157.06;2110612;28;20691;-85
2022/06/03 00:52:53;;;;;;;;;;;;;;;9.68;100.00;93161.94;2093889;28;20031;-83
2022/06/03 00:54:15;;;;;;;4.40;4.00;;;;;;;9.68;100.00;93161.94;2099896;28;19974;-83
2022/06/03 00:55:16;;;;;;;4.53;4.13;;;;;;;9.62;100.00;93161.66;2095496;28;20036;-85
2022/06/03 00:56:17;;;;;;;4.68;4.28;;;;;;;9.66;100.00;93165.03;2105993;28;20028;-85
2022/06/03 00:57:47;;;;;;;6.43;4.43;;;;;;;9.60;100.00;93169.31;2108294;28;20024;-84
2022/06/03 00:59:12;;;;;;;4.90;4.50;;;;;;;9.59;100.00;93171.22;2116765;27;20023;-86
2022/06/03 01:00:20;;;;;;;5.68;4.93;;;;;;;9.54;100.00;93169.03;2116198;27;20024;-85
2022/06/03 01:01:25;;;;;;;5.15;4.63;;;;;;;9.54;100.00;93168.28;2111772;28;20572;-84
2022/06/03 01:02:44;;;;;;;5.03;4.63;;;;;;;9.62;100.00;93164.34;2093911;28;20031;-85
2022/06/03 01:04:22;;;;;;;5.10;4.45;;;;;;;9.70;100.00;93172.94;2100763;28;20028;-83
2022/06/03 01:06:00;;;;;;;5.82;4.50;;;;;;;9.60;100.00;93161.31;2111041;27;20085;-84
2022/06/03 01:07:40;;;;;;;5.30;4.03;;;;;;;9.56;100.00;93164.03;2111284;28;20016;-85
2022/06/03 01:09:04;;;;;;;;;;;;;;;9.51;100.00;93164.50;2109140;28;20027;-85
2022/06/03 01:10:23;;;;;;;4.22;3.83;;;;;;;9.58;100.00;93163.63;2103985;28;19911;-83
2022/06/03 01:11:42;;;;;;;8.02;4.47;;;;;;;9.51;100.00;93163.75;2107463;28;20051;-84
2022/06/03 01:12:59;;;;;;;4.53;4.10;;;;;;;9.54;100.00;93165.63;2108930;28;20032;-85
2022/06/03 01:14:26;;;;;;;7.00;4.60;;;;;;;9.56;100.00;93161.34;2108503;28;20020;-83
2022/06/03 01:15:38;;;;;;;5.10;4.30;;;;;;;9.47;100.00;93161.13;2105892;28;20084;-85
2022/06/03 01:17:22;;;;;;;10.80;4.53;;;;;;;9.49;100.00;93158.09;2100789;28;20017;-85
2022/06/03 01:18:41;;;;;;;5.60;4.57;;;;;;;9.51;100.00;93167.16;2103719;28;20028;-83
2022/06/03 01:19:49;;;;;;;5.05;4.45;;;;;;;9.56;100.00;93161.34;2094675;28;20036;-84
2022/06/03 01:20:53;;;;;;;4.97;4.47;;;;;;;9.57;100.00;93162.88;2091245;28;20033;-84
2022/06/03 01:22:34;;;;;;;5.78;4.80;;;;;;;9.64;100.00;93163.91;2090139;28;20432;-84
2022/06/03 01:24:01;;;;;;;9.30;4.50;;;;;;;9.64;100.00;93159.31;2100443;28;20024;-86
2022/06/03 01:25:37;;;;;;;5.13;4.55;;;;;;;9.63;100.00;93155.16;2117967;27;20027;-85
2022/06/03 01:27:08;;;;;;;6.88;4.75;;;;;;;9.56;100.00;93153.34;2107126;28;20472;-84
2022/06/03 01:28:29;;;;;;;5.72;4.10;;;;;;;9.53;100.00;93148.09;2115349;27;20102;-86
2022/06/03 01:29:54;;;;;;;6.22;4.60;;;;;;;9.56;100.00;93148.03;2119031;27;20028;-84
2022/06/03 01:31:32;;;;;;;6.22;4.57;;;;;;;9.61;100.00;93149.47;2107931;28;20093;-86
2022/06/03 01:32:45;;;;;;;7.18;4.88;;;;;;;9.62;100.00;93150.25;2099492;28;20028;-84
2022/06/03 01:34:12;;;;;;;5.65;4.72;;;;;;;9.65;100.00;93149.41;2092614;28;20072;-87
2022/06/03 01:35:29;;;;;;;5.85;4.55;;;;;;;9.65;100.00;93144.06;2109582;28;20038;-85
2022/06/03 01:37:00;;;;;;;7.18;4.85;;;;;;;9.59;100.00;93141.13;2099609;28;20111;-83
2022/06/03 01:38:08;;;;;;;4.95;4.13;;;;;;;9.67;100.00;93139.09;2097758;28;20166;-85
2022/06/03 01:39:33;;;;;;;4.93;4.50;;;;;;;9.57;100.00;93144.22;2098502;28;20047;-85
2022/06/03 01:40:40;;;;;;;8.50;4.50;;;;;;;9.58;100.00;93144.97;2095605;28;20115;-86
2022/06/03 01:42:12;;;;;;;5.15;4.65;;;;;;;9.59;100.00;93144.53;2096202;28;20473;-84
2022/06/03 01:43:15;;;;;;;7.43;4.78;;;;;;;9.66;100.00;93143.69;2107310;27;20124;-85
2022/06/03 01:44:31;;;;;;;4.82;4.35;;;;;;;9.63;100.00;93144.47;2104248;28;20536;-85
2022/06/03 01:45:54;;;;;;;5.13;4.63;;;;;;;9.65;100.00;93146.75;2107877;28;20099;-85
2022/06/03 01:47:25;;;;;;;5.40;4.53;;;;;;;9.65;100.00;93141.41;2116623;27;20052;-85
2022/06/03 01:48:45;;;;;;;7.22;4.53;;;;;;;9.68;100.00;93146.69;2105020;28;20140;-86
2022/06/03 01:49:57;;;;;;;6.88;5.35;;;;;;;9.66;100.00;93150.91;2104264;28;20032;-85
2022/06/03 01:51:01;;;;;;;4.80;4.20;;;;;;;9.68;100.00;93151.25;2095619;28;20036;-85
2022/06/03 01:52:08;;;;;;;5.07;4.63;;;;;;;9.70;100.00;93154.25;2102049;28;20020;-85
2022/06/03 01:53:27;;;;;;;5.95;4.47;;;;;;;9.74;100.00;93154.97;2098180;28;20028;-86
2022/06/03 01:55:05;;;;;;;6.63;4.88;;;;;;;9.72;100.00;93149.28;2107617;28;20026;-83
2022/06/03 01:56:27;;;;;;;6.88;5.10;;;;;;;9.68;100.00;93151.25;2106363;28;20028;-85
2022/06/03 01:57:54;;;;;;;5.53;4.85;;;;;;;9.69;100.00;93155.44;2103012;28;20024;-85
2022/06/03 01:59:30;;;;;;;7.35;5.00;;;;;;;9.71;100.00;93155.78;2107086;27;20084;-84
2022/06/03 02:00:38;;;;;;;15.10;5.18;;;;;;;9.77;100.00;93146.88;2089034;28;20488;-86
2022/06/03 02:02:11;;;;;;;7.32;4.82;;;;;;;9.82;100.00;93146.41;2099593;28;20060;-85
2022/06/03 02:03:25;;;;;;;5.97;4.70;;;;;;;9.84;100.00;93146.78;2101746;28;20056;-84
2022/06/03 02:04:56;;;;;;;5.05;4.38;;;;;;;9.80;100.00;93150.66;2092810;28;20528;-86
2022/06/03 02:06:18;;;;;;;6.45;3.90;;;;;;;9.95;100.00;93143.88;2114209;27;20452;-86
2022/06/03 02:07:56;;;;;;;5.43;4.13;;;;;;;10.04;100.00;93143.34;2105662;28;20085;-86
2022/06/03 02:09:19;;;;;;;5.88;3.80;;;;;;;9.97;100.00;93144.25;2113409;27;20019;-85
2022/06/03 02:10:20;;;;;;;14.45;4.28;;;;;;;9.96;100.00;93137.38;2106782;28;20019;-83
2022/06/03 02:13:42;;;;;;;;;;;;;;;10.00;100.00;93135.41;2148531;27;20113;-87
2022/06/03 02:14:55;;;;;;;6.25;3.17;;;;;;;10.01;100.00;93125.50;2121426;28;19911;-87
2022/06/03 02:16:15;;;;;;;3.88;3.38;;;;;;;9.96;100.00;93126.69;2107529;28;20056;-85
2022/06/03 02:17:41;;;;;;;4.82;3.60;;;;;;;9.93;100.00;93121.44;2109744;28;20029;-84
2022/06/03 02:19:04;;;;;;;3.95;3.42;;;;;;;9.91;100.00;93121.84;2111646;28;20032;-85
2022/06/03 02:20:07;;;;;;;3.28;2.95;;;;;;;9.93;100.00;93122.19;2116106;28;20032;-88
2022/06/03 02:21:32;;;;;;;7.10;3.47;;;;;;;9.94;100.00;93110.34;2120925;28;20015;-87
2022/06/03 02:23:17;;;;;;;3.35;3.15;;;;;;;10.01;100.00;93117.47;2105698;28;20035;-87
2022/06/03 02:25:00;;;;;;;3.85;3.20;;;;;;;10.11;100.00;93113.09;2119147;28;20019;-88
2022/06/03 02:26:16;;;;;;;3.33;3.03;;;;;;;9.95;100.00;93111.09;2110287;28;20054;-86
2022/06/03 02:27:22;;;;;;;3.20;3.00;;;;;;;9.98;100.00;93110.28;2110259;28;20019;-86
2022/06/03 02:28:48;;;;;;;4.88;2.92;;;;;;;9.88;100.00;93105.88;2114499;27;20028;-87
2022/06/03 02:31:43;;;;;;;3.00;2.80;;;;;;;9.84;100.00;93114.00;2113849;28;20473;-85
2022/06/03 02:33:15;;;;;;;3.42;3.10;;;;;;;9.85;100.00;93110.16;2109902;28;20437;-85
2022/06/03 02:35:08;;;;;;;3.55;3.00;;;;;;;9.90;100.00;93109.66;2112752;28;20476;-87
2022/06/03 02:36:31;;;;;;;3.33;2.90;;;;;;;9.89;100.00;93110.84;2083726;28;20021;-85
2022/06/03 02:37:45;;;;;;;3.55;3.25;;;;;;;9.85;100.00;93110.16;2082090;28;20033;-87
2022/06/03 02:39:07;;;;;;;5.63;3.40;;;;;;;9.78;100.00;93107.59;2093513;28;20033;-87
2022/06/03 02:40:30;;;;;;;4.00;3.10;;;;;;;9.80;100.00;93113.28;2102044;28;20135;-85
2022/06/03 02:41:51;;;;;;;7.65;3.45;;;;;;;9.79;100.00;93111.78;2113285;28;20035;-88
2022/06/03 02:43:22;;;;;;;3.72;3.30;;;;;;;9.82;100.00;93114.38;2118295;28;20024;-86
2022/06/03 02:44:46;;;;;;;4.75;3.17;;;;;;;9.83;100.00;93113.25;2116757;28;20031;-86
2022/06/03 02:45:59;;;;;;;4.00;3.70;;;;;;;9.77;100.00;93111.44;2107629;28;20028;-84
2022/06/03 02:47:29;;;;;;;3.85;3.53;;;;;;;9.74;100.00;93112.25;2090720;28;20028;-85
2022/06/03 02:48:39;;;;;;;5.65;3.30;;;;;;;9.67;100.00;93128.41;2108106;28;20023;-85
2022/06/03 02:49:52;;;;;;;6.07;3.35;;;;;;;9.59;100.00;93123.19;2105997;28;20044;-86
2022/06/03 02:51:11;;;;;;;5.20;3.65;;;;;;;9.67;100.00;93129.16;2107371;28;20035;-86
2022/06/03 02:52:41;;;;;;;3.88;3.58;;;;;;;9.66;100.00;93129.56;2103641;28;20020;-87
2022/06/03 02:54:25;;;;;;;4.32;3.75;;;;;;;9.73;100.00;93129.44;2112452;28;20043;-86
2022/06/03 02:56:04;;;;;;;4.43;3.97;;;;;;;9.73;100.00;93134.78;2112457;28;20039;-87
2022/06/03 02:57:41;;;;;;;7.05;3.90;;;;;;;9.78;100.00;93140.38;2100675;28;20064;-86
2022/06/03 02:58:53;;;;;;;4.50;4.10;;;;;;;9.75;100.00;93141.22;2059222;28;20038;-87
2022/06/03 03:00:19;;;;;;;4.45;4.05;;;;;;;9.82;100.00;93134.97;2077853;28;20025;-85
2022/06/03 03:01:57;;;;;;;4.90;4.50;;;;;;;9.82;100.00;93132.31;2093491;28;20032;-87
2022/06/03 03:03:06;;;;;;;3.92;3.63;;;;;;;9.76;100.00;93132.03;2100641;28;20028;-87
2022/06/03 03:04:44;;;;;;;6.60;4.15;;;;;;;9.68;100.00;93135.25;2097471;28;20025;-86
2022/06/03 03:06:00;;;;;;;5.80;4.10;;;;;;;9.72;100.00;93136.69;2094993;28;20534;-85
2022/06/03 03:07:00;;;;;;;5.50;4.75;;;;;;;9.85;100.00;93147.53;2099430;28;20033;-86
2022/06/03 03:08:20;;;;;;;4.28;3.97;;;;;;;9.77;100.00;93138.13;2112475;28;20032;-87
2022/06/03 03:09:48;;;;;;;5.35;4.10;;;;;;;9.80;100.00;93131.97;2106381;28;20228;-86
2022/06/03 03:11:08;;;;;;;4.38;3.97;;;;;;;9.76;100.00;93134.72;2104164;28;20031;-85
2022/06/03 03:12:18;;;;;;;4.38;4.05;;;;;;;9.68;100.00;93132.59;2089862;28;20088;-85
2022/06/03 03:13:40;;;;;;;4.53;4.03;;;;;;;9.64;100.00;93126.56;2095549;28;20094;-88
2022/06/03 03:14:44;;;;;;;4.13;3.83;;;;;;;9.61;100.00;93124.69;2093373;28;20123;-86
2022/06/03 03:16:11;;;;;;;4.63;4.22;;;;;;;9.66;100.00;93126.88;2087671;28;20722;-85
2022/06/03 03:17:18;;;;;;;7.38;5.20;;;;;;;9.76;100.00;93128.63;2094539;28;20028;-85
2022/06/03 03:18:50;;;;;;;5.05;4.65;;;;;;;9.72;100.00;93126.03;2102777;28;20028;-86
2022/06/03 03:20:15;;;;;;;6.32;5.38;;;;;;;9.84;100.00;93119.31;2108257;28;20041;-87
2022/06/03 03:21:54;;;;;;;5.22;4.72;;;;;;;9.76;100.00;93116.03;2101987;28;20020;-85
2022/06/03 03:23:38;;;;;;;5.05;4.65;;;;;;;9.70;100.00;93109.66;2123369;27;20456;-85
2022/06/03 03:25:09;;;;;;;7.03;5.03;;;;;;;9.88;100.00;93113.91;2091072;28;20478;-86
2022/06/03 03:27:08;;;;;;;5.80;4.80;;;;;;;9.74;100.00;93112.25;2106787;28;20054;-86
2022/06/03 03:28:46;;;;;;;6.07;5.57;;;;;;;9.70;100.00;93106.22;2081471;28;20033;-86
2022/06/03 03:29:56;;;;;;;6.15;5.15;;;;;;;9.75;100.00;93111.13;2103087;28;20032;-86
2022/06/03 03:31:00;;;;;;;;;;;;;;;9.73;100.00;93102.75;2099818;28;20028;-85
2022/06/03 03:32:29;;;;;;;5.75;4.68;;;;;;;9.72;100.00;93103.91;2107234;28;19923;-86
2022/06/03 03:33:55;;;;;;;5.45;4.95;;;;;;;9.88;100.00;93106.66;2076855;28;20073;-86
2022/06/03 03:35:08;;;;;;;5.75;4.95;;;;;;;9.71;100.00;93102.41;2096515;28;20055;-87
2022/06/03 03:36:44;;;;;;;8.20;5.20;;;;;;;9.67;100.00;93101.72;2076653;28;20036;-86
2022/06/03 03:38:16;;;;;;;7.63;5.05;;;;;;;9.59;100.00;93101.84;2091627;28;20030;-86
2022/06/03 03:39:56;;;;;;;5.20;4.70;;;;;;;9.55;100.00;93103.06;2101811;28;20072;-86
2022/06/03 03:41:13;;;;;;;4.90;4.60;;;;;;;9.46;100.00;93094.84;2103349;28;20151;-87
2022/06/03 03:42:58;;;;;;;5.30;4.65;;;;;;;9.62;100.00;93096.88;2078106;28;20120;-86
2022/06/03 03:44:02;;;;;;;6.55;4.57;;;;;;;9.74;100.00;93091.66;2093743;28;20013;-86
2022/06/03 03:45:37;;;;;;;5.70;5.20;;;;;;;9.69;100.00;93092.13;2089748;28;20163;-87
2022/06/03 03:46:54;;;;;;;6.93;4.60;;;;;;;9.75;100.00;93093.19;2101168;28;20059;-88
2022/06/03 03:48:07;;;;;;;7.38;4.80;;;;;;;9.71;100.00;93092.50;2098218;28;20027;-87
2022/06/03 03:49:32;;;;;;;5.28;4.80;;;;;;;9.64;100.00;93097.19;2091617;28;20033;-86
2022/06/03 03:51:09;;;;;;;4.95;4.55;;;;;;;9.54;100.00;93093.56;2084839;28;20067;-87
2022/06/03 03:52:34;;;;;;;6.03;4.55;;;;;;;9.55;100.00;93089.72;2091318;28;20055;-85
2022/06/03 03:53:50;;;;;;;5.28;4.78;;;;;;;9.45;100.00;93099.44;2084951;28;20025;-87
2022/06/03 03:54:57;;;;;;;5.53;4.80;;;;;;;9.47;100.00;93091.03;2085495;28;20414;-86
2022/06/03 03:56:49;;;;;;;8.57;4.80;;;;;;;9.49;100.00;93094.03;2090384;28;20025;-87
2022/06/03 03:58:08;;;;;;;4.85;4.40;;;;;;;9.53;100.00;93100.06;2072914;28;20120;-87
2022/06/03 03:59:12;;;;;;;5.90;4.72;;;;;;;9.54;100.00;93096.25;2084298;28;20067;-87
2022/06/03 04:00:41;;;;;;;4.68;4.30;;;;;;;9.51;100.00;93089.03;2082713;28;20033;-87
2022/06/03 04:02:19;;;;;;;4.53;4.18;;;;;;;9.46;100.00;93089.53;2093753;28;20035;-86
2022/06/03 04:04:02;;;;;;;6.88;4.93;;;;;;;9.39;100.00;93086.97;2093812;28;20028;-87
2022/06/03 04:05:40;;;;;;;6.43;4.78;;;;;;;9.45;100.00;93093.34;2090076;28;20123;-86
2022/06/03 04:07:16;;;;;;;4.85;4.28;;;;;;;9.56;100.00;93083.97;2089572;28;20021;-86
2022/06/03 04:08:38;;;;;;;5.22;4.78;;;;;;;9.56;100.00;93091.22;2091190;28;20032;-87
2022/06/03 04:09:58;;;;;;;6.45;4.43;;;;;;;9.54;100.00;93085.56;2089680;28;20021;-86
2022/06/03 04:11:02;;;;;;;4.85;4.38;;;;;;;9.56;100.00;93089.31;2095750;28;20032;-85
2022/06/03 04:12:17;;;;;;;5.18;4.30;;;;;;;9.55;100.00;93084.41;2102006;28;20114;-85
2022/06/03 04:13:42;;;;;;;6.03;4.47;;;;;;;9.54;100.00;93090.91;2099986;28;20643;-86
2022/06/03 04:15:08;;;;;;;4.90;4.30;;;;;;;9.59;100.00;93091.16;2109740;28;20034;-86
2022/06/03 04:16:38;;;;;;;5.47;4.65;;;;;;;9.61;100.00;93096.09;2103382;28;20114;-85
2022/06/03 04:17:51;;;;;;;;;;;;;;;9.64;100.00;93105.22;2098030;28;20038;-85
2022/06/03 04:19:04;;;;;;;4.55;4.15;;;;;;;9.72;100.00;93106.59;2109617;27;19983;-85
2022/06/03 04:20:26;;;;;;;5.65;4.60;;;;;;;9.64;100.00;93105.97;2114625;28;20484;-88
2022/06/03 04:21:53;;;;;;;4.78;4.47;;;;;;;9.66;100.00;93108.19;2105872;28;20028;-86
2022/06/03 04:24:58;;;;;;;3.95;3.67;;;;;;;9.70;100.00;93111.56;2096482;28;20051;-86
2022/06/03 04:26:26;;;;;;;3.85;3.55;;;;;;;9.74;100.00;93113.00;2100334;28;20020;-85
2022/06/03 04:27:45;;;;;;;4.97;3.70;;;;;;;9.86;100.00;93124.25;2097088;28;20079;-86
2022/06/03 04:28:59;;;;;;;4.38;4.03;;;;;;;9.58;100.00;93120.94;2108953;28;20022;-86
2022/06/03 04:30:40;;;;;;;4.38;3.58;;;;;;;9.84;100.00;93132.69;2108359;28;20020;-86
2022/06/03 04:31:59;;;;;;;5.55;3.53;;;;;;;9.71;100.00;93124.53;2095271;28;20035;-85
2022/06/03 04:33:02;;;;;;;5.63;3.92;;;;;;;9.75;100.00;93125.22;2102939;28;20032;-86
2022/06/03 04:34:22;;;;;;;4.75;4.35;;;;;;;9.76;100.00;93128.63;2098728;28;20038;-86
2022/06/03 04:35:55;;;;;;;5.10;4.70;;;;;;;9.86;100.00;93126.91;2089723;28;20037;-87
2022/06/03 04:37:17;;;;;;;5.13;4.63;;;;;;;9.82;100.00;93129.66;2072255;28;20037;-86
2022/06/03 04:38:36;;;;;;;5.53;4.60;;;;;;;9.83;100.00;93129.25;2089549;28;20025;-86
2022/06/03 04:40:02;;;;;;;4.10;3.70;;;;;;;9.86;100.00;93140.25;2093028;28;20028;-86
2022/06/03 04:42:03;;;;;;;6.88;4.88;;;;;;;9.87;100.00;93137.19;2104520;28;20385;-85
2022/06/03 04:43:23;;;;;;;6.50;6.00;;;;;;;9.84;100.00;93136.09;2101954;28;20827;-87
2022/06/03 04:45:09;;;;;;;8.27;6.53;;;;;;;9.97;100.00;93141.56;2094691;28;20059;-87
2022/06/03 04:46:47;;;;;;;6.43;5.82;;;;;;;10.02;100.00;93130.41;2104784;28;20031;-86
2022/06/03 04:47:50;;;;;;;7.15;6.25;;;;;;;10.16;100.00;93140.06;2094482;28;20033;-87
2022/06/03 04:49:04;;;;;;;8.27;6.07;;;;;;;10.23;100.00;93139.94;2081744;28;20025;-85
2022/06/03 04:50:33;;;;;;;7.95;5.90;;;;;;;10.30;100.00;93153.16;2084731;28;20149;-86
2022/06/03 04:51:46;;;;;;;6.20;5.60;;;;;;;10.30;100.00;93147.06;2087359;28;20025;-86
2022/06/03 04:53:07;;;;;;;6.00;5.55;;;;;;;10.27;100.00;93139.88;2087964;28;20510;-85
2022/06/03 04:54:27;;;;;;;10.75;6.07;;;;;;;10.39;100.00;93128.56;2093581;28;20025;-87
2022/06/03 04:56:02;;;;;;;7.35;6.22;;;;;;;10.34;100.00;93134.38;2100340;28;20385;-85
2022/06/03 04:57:41;;;;;;;6.40;5.80;;;;;;;10.35;100.00;93130.53;2098360;28;20043;-85
2022/06/03 04:59:00;;;;;;;8.80;5.72;;;;;;;10.33;100.00;93127.53;2101721;28;20484;-86
2022/06/03 05:00:26;;;;;;;6.97;6.28;;;;;;;10.39;100.00;93128.56;2105541;28;20039;-87
2022/06/03 05:02:07;;;;;;;8.55;5.80;;;;;;;10.65;100.00;93118.09;2102283;28;20032;-86
2022/06/03 05:03:44;;;;;;;6.43;5.75;;;;;;;10.67;100.00;93116.50;2092091;28;20107;-86
2022/06/03 05:05:07;;;;;;;6.75;5.38;;;;;;;10.63;100.00;93118.50;2094359;28;20032;-86
2022/06/03 05:06:15;;;;;;;8.60;5.97;;;;;;;10.77;100.00;93126.22;2092077;28;20130;-86
2022/06/03 05:07:55;;;;;;;8.43;6.50;;;;;;;11.09;100.00;93125.47;2089280;28;20056;-86
2022/06/03 05:09:05;;;;;;;6.07;5.47;;;;;;;11.01;100.00;93118.03;2088767;28;20787;-86
2022/06/03 05:10:52;;;;;;;8.25;6.53;;;;;;;10.98;100.00;93118.88;2078186;28;20076;-85
2022/06/03 05:12:11;;;;;;;7.55;6.05;;;;;;;10.95;100.00;93128.47;2081431;28;20024;-86
2022/06/03 05:13:49;;;;;;;6.07;5.57;;;;;;;11.14;100.00;93128.81;2075904;28;20084;-86
2022/06/03 05:15:18;;;;;;;7.60;6.88;;;;;;;11.36;100.00;93135.16;2097777;28;20922;-86
2022/06/03 05:16:50;;;;;;;9.40;6.30;;;;;;;11.37;100.00;93128.66;2099123;28;20023;-86
2022/06/03 05:18:28;;;;;;;10.90;5.93;;;;;;;11.48;100.00;93131.81;2100153;28;20016;-87
2022/06/03 05:19:32;;;;;;;6.78;6.15;;;;;;;11.66;100.00;93120.63;2109731;28;20155;-86
2022/06/03 05:20:54;;;;;;;6.63;6.03;;;;;;;11.57;100.00;93115.13;2095826;28;20027;-85
2022/06/03 05:22:10;;;;;;;7.03;5.93;;;;;;;11.60;100.00;93115.06;2093069;28;20038;-86
2022/06/03 05:23:14;;;;;;;7.20;6.50;;;;;;;11.65;100.00;93113.03;2081772;28;20090;-86
2022/06/03 05:24:36;;;;;;;6.32;5.82;;;;;;;11.91;100.00;93108.56;2082949;28;20747;-87
2022/06/03 05:25:49;;;;;;;7.78;6.15;;;;;;;11.87;100.00;93110.59;2093478;28;20028;-84
2022/06/03 05:27:17;;;;;;;7.22;6.25;;;;;;;11.88;100.00;93106.72;2097435;28;20056;-87
2022/06/03 05:28:23;;;;;;;6.22;5.65;;;;;;;11.86;100.00;93114.44;2103522;28;20098;-84
2022/06/03 05:29:50;;;;;;;6.65;5.95;;;;;;;11.82;100.00;93109.91;2105385;28;20027;-86
2022/06/03 05:31:26;;;;;;;7.20;6.20;;;;;;;11.93;100.00;93109.63;2099866;28;20039;-86
2022/06/03 05:32:48;;;;;;;6.22;5.70;;;;;;;11.85;100.00;93111.00;2075128;28;20031;-86
2022/06/03 05:34:12;;;;;;;6.45;5.85;;;;;;;11.90;100.00;93115.09;2085303;28;20119;-86
2022/06/03 05:35:13;;;;;;;13.35;6.35;;;;;;;12.05;100.00;93116.94;2094673;28;20074;-86
2022/06/03 05:36:21;;;;;;;8.23;6.03;;;;;;;12.12;100.00;93113.34;2088000;28;20386;-85
2022/06/03 05:37:43;;;;;;;10.90;6.50;;;;;;;12.12;100.00;93112.59;2079961;28;20040;-86
2022/06/03 05:39:30;;;;;;;7.47;5.75;;;;;;;12.17;100.00;93112.06;2096813;28;20023;-86
2022/06/03 05:42:23;;;;;;;6.72;6.13;;;;;;;12.35;100.00;93106.94;2110620;28;20677;-86
2022/06/03 05:43:06;;;;;;;6.53;5.93;;;;;;;12.43;100.00;93104.81;2091222;28;20036;-85
2022/06/03 05:44:36;;;;;;;5.97;5.40;;;;;;;12.58;100.00;93097.84;2101980;28;20764;-86
2022/06/03 05:45:51;;;;;;;6.65;6.05;;;;;;;12.83;100.00;93095.19;2091788;28;20059;-86
2022/06/03 05:47:06;;;;;;;6.20;5.63;;;;;;;12.82;100.00;93104.41;2096280;28;20028;-86
2022/06/03 05:48:07;;;;;;;6.20;5.60;;;;;;;12.79;100.00;93107.19;2090839;28;20340;-86
2022/06/03 05:50:07;;;;;;;6.75;5.97;;;;;;;12.90;100.00;93104.94;2088153;28;20028;-88
2022/06/03 05:51:26;;;;;;;6.10;5.60;;;;;;;13.09;100.00;93103.97;2082304;28;20085;-87
2022/06/03 05:52:38;;;;;;;6.57;5.93;;;;;;;13.07;100.00;93105.56;2087573;28;20036;-84
2022/06/03 05:54:31;;;;;;;6.35;5.85;;;;;;;13.02;100.00;93101.47;2082951;28;20029;-85
2022/06/03 05:56:16;;;;;;;6.22;5.72;;;;;;;13.07;100.00;93113.59;2095054;28;20098;-86
2022/06/03 05:57:30;;;;;;;6.82;6.15;;;;;;;13.29;100.00;93119.09;2105459;27;20035;-86
2022/06/03 05:58:55;;;;;;;7.60;6.55;;;;;;;13.42;100.00;93117.13;2092655;28;20044;-86
2022/06/03 06:00:11;;;;;;;7.85;6.45;;;;;;;13.44;100.00;93122.06;2092729;28;20122;-86
2022/06/03 06:01:46;;;;;;;8.77;6.47;;;;;;;13.44;100.00;93122.06;2100374;28;20025;-88
2022/06/03 06:03:13;;;;;;;7.03;6.32;;;;;;;13.58;100.00;93118.91;2109369;28;20093;-86
2022/06/03 06:04:17;;;;;;;7.00;6.32;;;;;;;13.64;100.00;93111.78;2108536;28;20023;-86
2022/06/03 06:05:57;;;;;;;6.88;6.28;;;;;;;13.59;100.00;93104.28;2105116;28;20051;-85
2022/06/03 06:07:24;;;;;;;12.68;6.45;;;;;;;13.57;100.00;93110.13;2099091;28;20398;-87
2022/06/03 06:09:06;;;;;;;7.40;6.55;;;;;;;13.62;100.00;93110.75;2103578;28;20023;-87
2022/06/03 06:10:32;;;;;;;7.70;6.95;;;;;;;13.75;100.00;93116.81;2055898;28;20034;-86
2022/06/03 06:12:03;;;;;;;7.68;6.97;;;;;;;13.91;100.00;93115.88;2069567;28;20032;-86
2022/06/03 06:13:21;;;;;;;7.43;6.70;;;;;;;14.01;100.00;93109.41;2096008;28;20135;-87
2022/06/03 06:14:34;;;;;;;7.05;6.38;;;;;;;14.25;100.00;93110.47;2082226;28;20025;-85
2022/06/03 06:15:56;;;;;;;7.55;6.82;;;;;;;14.21;100.00;93101.75;2088165;28;20067;-84
2022/06/03 06:17:09;;;;;;;8.60;7.30;;;;;;;14.28;100.00;93109.59;2099607;28;20032;-84
2022/06/03 06:18:22;;;;;;;8.18;6.63;;;;;;;14.28;100.00;93104.22;2113281;28;20140;-86
2022/06/03 06:19:36;;;;;;;8.38;6.95;;;;;;;14.34;100.00;93105.13;2104673;28;20070;-86
2022/06/03 06:21:13;;;;;;;8.27;7.28;;;;;;;14.54;100.00;93112.16;2093768;28;20162;-87
2022/06/03 06:22:36;;;;;;;7.65;6.95;;;;;;;14.78;100.00;93104.31;2095074;28;20085;-85
2022/06/03 06:23:42;;;;;;;7.55;6.93;;;;;;;14.71;100.00;93108.06;2098625;28;20039;-84
2022/06/03 06:25:01;;;;;;;8.30;7.45;;;;;;;14.88;100.00;93099.72;2104966;28;20020;-86
2022/06/03 06:26:11;;;;;;;8.40;7.60;;;;;;;15.10;100.00;93097.69;2098642;28;20028;-86
2022/06/03 06:27:27;;;;;;;8.90;7.63;;;;;;;15.22;100.00;93098.78;2090135;28;20029;-88
2022/06/03 06:28:47;;;;;;;9.63;7.63;;;;;;;15.20;100.00;93098.50;2091970;28;20029;-83
2022/06/03 06:29:54;;;;;;;7.43;6.72;;;;;;;15.43;100.00;93097.94;2107832;28;20051;-87
2022/06/03 06:31:40;;;;;;;8.38;6.97;;;;;;;15.43;100.00;93099.88;2104467;28;20020;-86
2022/06/03 06:32:50;;;;;;;9.02;7.53;;;;;;;15.48;100.00;93094.66;2083206;28;20029;-86
2022/06/03 06:34:14;;;;;;;12.55;6.93;;;;;;;15.50;100.00;93099.59;2089154;28;20029;-87
2022/06/03 06:35:44;;;;;;;10.43;6.45;;;;;;;15.64;100.00;93088.25;2094289;28;20110;-88
2022/06/03 06:37:00;;;;;;;8.20;6.60;;;;;;;15.64;100.00;93096.34;2097582;28;20028;-85
2022/06/03 06:38:47;;;;;;;6.65;6.03;;;;;;;15.67;100.00;93098.16;2098111;28;20032;-85